Latest Weather Observations for Lucinda

IDQ60801

Issued at 3:32 pm EST Thursday 29 June 2017 (issued every 30 minutes, with the page automatically refreshed every 10 minutes)

About weather observations | Map of weather stations | Latest weather observations for QLD | Other Formats
Station Details ID: 032141 Name: LUCINDA POINT Lat: -18.52 Lon: 146.39 Height: 10.0 m
Data from the previous 72 hours. | See also: Recent months at Lucinda
Date/Time
EST
Temp
°C
App
Temp
°C
Dew
Point
°C
Rel
Hum
%
Delta-T
°C
Wind Press
QNH
hPa
Press
MSL
hPa
Rain since
9am
mm
Dir  Spd
km/h
Gust
km/h
Spd
kts
Gust
kts
29/03:30pm 22.7 23.0 20.4 87 1.5 S 19 20 10 11 1017.0 1017.0 0.0
29/03:00pm 22.6 22.7 20.3 87 1.5 S 20 22 11 12 1017.1 1017.1 0.0
29/02:30pm 22.6 22.6 20.1 86 1.6 S 20 22 11 12 1017.0 1017.0 0.0
29/02:00pm 22.6 22.9 20.3 87 1.5 S 19 22 10 12 1017.1 1017.1 0.0
29/01:30pm 22.5 21.8 20.2 87 1.5 S 24 26 13 14 1017.3 1017.3 0.0
29/01:00pm 22.2 20.8 19.6 85 1.7 S 26 30 14 16 1017.7 1017.7 0.0
29/12:30pm 22.2 20.5 19.7 86 1.6 S 28 32 15 17 1018.1 1018.1 0.0
29/12:00pm 22.3 20.6 19.8 86 1.6 S 28 33 15 18 1018.6 1018.6 0.0
29/11:30am 22.1 20.4 19.8 87 1.5 S 28 32 15 17 1019.0 1019.0 0.0
29/11:00am 22.2 20.9 19.9 87 1.5 S 26 32 14 17 1019.2 1019.2 0.0
29/10:30am 22.0 20.3 19.7 87 1.5 S 28 33 15 18 1019.5 1019.5 0.0
29/10:00am 22.0 21.1 19.9 88 1.3 S 24 30 13 16 1019.6 1019.6 0.0
29/09:30am 22.2 21.5 20.3 89 1.2 S 24 30 13 16 1019.5 1019.5 0.0
29/09:00am 22.3 22.4 20.4 89 1.2 S 20 26 11 14 1019.5 1019.5 9.8
29/08:30am 22.6 23.6 20.3 87 1.5 S 15 20 8 11 1019.1 1019.1 9.8
29/08:00am 22.5 23.6 20.4 88 1.4 SSE 15 24 8 13 1018.9 1018.9 9.8
29/07:30am 22.4 23.5 20.5 89 1.2 SSE 15 28 8 15 1018.7 1018.7 9.8
29/07:00am 22.3 22.4 20.4 89 1.2 SE 20 30 11 16 1018.2 1018.2 9.8
29/06:30am 22.3 22.9 20.2 88 1.4 SSE 17 32 9 17 1018.1 1018.1 9.8
29/06:00am 22.3 22.9 20.2 88 1.4 SE 17 32 9 17 1017.7 1017.7 9.8
29/05:30am 22.4 23.0 20.3 88 1.4 SSE 17 30 9 16 1017.5 1017.5 9.8
29/05:00am 22.6 23.6 20.3 87 1.5 SSE 15 28 8 15 1017.3 1017.3 9.8
29/04:30am 22.2 22.1 20.7 91 1.0 S 22 30 12 16 1017.2 1017.2 9.6
29/04:00am 22.5 23.3 20.6 89 1.2 S 17 22 9 12 1017.3 1017.3 9.6
29/03:30am 22.1 22.8 20.4 90 1.1 S 17 26 9 14 1017.5 1017.5 9.6
29/03:00am 22.6 23.4 20.7 89 1.2 SSE 17 30 9 16 1017.5 1017.5 9.4
29/02:30am 22.4 24.1 21.0 92 0.9 SSE 13 22 7 12 1017.6 1017.6 9.4
29/02:00am 21.6 22.1 20.9 96 0.5 S 19 28 10 15 1017.9 1017.9 9.4
29/01:30am 21.3 23.5 20.5 95 0.5 SSE 9 20 5 11 1018.1 1018.1 7.8
29/01:00am 21.2 23.8 20.5 96 0.5 S 7 11 4 6 1018.6 1018.6 5.2
29/12:30am 20.8 20.4 20.1 96 0.4 SSW 22 26 12 14 1018.8 1018.8 3.4
29/12:00am 21.2 20.6 20.4 95 0.5 S 24 28 13 15 1018.7 1018.7 1.0
 
Date/Time
EST
Temp
°C
App
Temp
°C
Dew
Point
°C
Rel
Hum
%
Delta-T
°C
Wind Press
QNH
hPa
Press
MSL
hPa
Rain since
9am
mm
Dir  Spd
km/h
Gust
km/h
Spd
kts
Gust
kts
28/11:30pm 21.6 23.1 20.6 94 0.6 S 13 20 7 11 1019.0 1019.0 0.8
28/11:00pm 20.7 22.2 19.7 94 0.6 SSE 11 20 6 11 1019.1 1019.1 0.6
28/10:30pm 21.2 22.5 20.2 94 0.6 SE 13 20 7 11 1019.5 1019.5 0.4
28/10:00pm 21.7 23.0 20.2 91 1.0 SSE 13 22 7 12 1019.4 1019.4 0.0
28/09:30pm 21.4 21.5 20.4 94 0.6 S 20 26 11 14 1019.3 1019.3 0.0
28/09:00pm 21.8 22.1 20.4 92 0.9 S 19 28 10 15 1019.2 1019.2 0.0
28/08:30pm 21.4 20.8 20.4 94 0.6 S 24 26 13 14 1019.0 1019.0 0.0
28/08:00pm 21.3 21.0 20.3 94 0.6 S 22 28 12 15 1018.9 1018.9 0.0
28/07:30pm 22.3 23.6 20.2 88 1.4 S 13 17 7 9 1018.7 1018.7 0.0
28/07:00pm 21.9 22.0 20.4 91 1.0 S 20 28 11 15 1018.4 1018.4 0.0
28/06:30pm 22.0 22.6 20.3 90 1.1 S 17 24 9 13 1018.1 1018.1 0.0
28/06:00pm 22.6 24.0 20.3 87 1.5 SSE 13 20 7 11 1018.0 1018.0 0.0
28/05:30pm 22.8 22.7 20.0 84 1.8 ESE 20 35 11 19 1017.7 1017.7 0.0
28/05:00pm 23.1 23.5 19.9 82 2.1 SE 17 24 9 13 1017.5 1017.5 0.0
28/04:30pm 23.3 25.1 20.4 84 1.9 SSE 11 19 6 10 1017.3 1017.3 0.0
28/04:00pm 23.4 24.7 20.2 82 2.1 SSE 13 20 7 11 1017.3 1017.3 0.0
28/03:30pm 23.5 24.8 20.2 82 2.1 SE 13 20 7 11 1017.2 1017.2 0.0
28/03:00pm 23.1 25.0 20.6 86 1.6 SSE 11 17 6 9 1017.3 1017.3 0.0
28/02:30pm 23.0 23.1 20.3 85 1.7 SE 20 24 11 13 1017.2 1017.2 0.0
28/02:00pm 23.7 24.9 20.6 83 2.0 SE 15 20 8 11 1017.2 1017.2 0.0
28/01:30pm 23.3 25.7 20.8 86 1.6 S 9 13 5 7 1017.4 1017.4 0.0
28/01:00pm 22.7 23.6 20.8 89 1.2 S 17 20 9 11 1017.7 1017.7 0.0
28/12:30pm 22.6 22.5 20.7 89 1.2 SSE 22 26 12 14 1018.1 1018.1 0.0
28/12:00pm 22.5 22.9 20.6 89 1.2 S 19 24 10 13 1018.6 1018.6 0.0
28/11:30am 22.5 22.7 20.6 89 1.2 S 20 26 11 14 1019.0 1019.0 0.0
28/11:00am 22.5 21.9 20.6 89 1.2 S 24 28 13 15 1019.2 1019.2 0.0
28/10:30am 22.4 22.2 20.5 89 1.2 S 22 28 12 15 1019.3 1019.3 0.0
28/10:00am 23.6 26.4 20.9 85 1.8 S 7 11 4 6 1019.2 1019.2 0.0
28/09:30am 23.6 25.8 21.1 86 1.6 SE 11 17 6 9 1019.1 1019.1 0.0
28/09:00am 23.2 24.5 20.9 87 1.5 ESE 15 22 8 12 1018.8 1018.8 1.4
28/08:30am 22.8 24.2 21.1 90 1.1 ESE 15 20 8 11 1018.8 1018.8 1.4
28/08:00am 22.6 23.9 20.9 90 1.1 SE 15 22 8 12 1018.4 1018.4 1.4
28/07:30am 22.5 23.5 21.0 91 1.0 ESE 17 20 9 11 1018.1 1018.1 1.4
28/07:00am 22.5 24.5 20.8 90 1.1 SSE 11 17 6 9 1017.9 1017.9 1.2
28/06:30am 22.6 23.5 20.9 90 1.1 ESE 17 24 9 13 1017.6 1017.6 1.2
28/06:00am 22.4 23.9 20.5 89 1.2 SSE 13 26 7 14 1017.2 1017.2 1.2
28/05:30am 22.3 24.0 20.2 88 1.4 SSE 11 17 6 9 1017.1 1017.1 1.2
28/05:00am 22.2 23.5 20.1 88 1.3 SSE 13 26 7 14 1017.1 1017.1 1.2
28/04:30am 22.4 22.4 20.1 87 1.5 ESE 20 35 11 19 1016.9 1016.9 1.0
28/04:00am 22.4 22.3 19.9 86 1.6 SE 20 30 11 16 1016.9 1016.9 1.0
28/03:30am 22.4 21.1 19.9 86 1.6 SE 26 37 14 20 1017.0 1017.0 1.0
28/03:00am 22.3 21.0 19.8 86 1.6 SE 26 41 14 22 1017.2 1017.2 1.0
28/02:31am 22.5 20.8 19.9 85 1.7 SE 28 46 15 25 1017.5 1017.5 1.0
28/02:30am 22.5 20.5 19.9 85 1.7 SE 30 46 16 25 1017.5 1017.5 1.0
28/02:27am 22.5 20.9 20.0 86 1.6 SE 28 46 15 25 1017.5 1017.5 1.0
28/02:00am 22.5 22.0 20.0 86 1.6 SE 22 35 12 19 1017.9 1017.9 1.0
28/01:30am 22.8 22.3 20.0 84 1.8 SE 22 35 12 19 1018.2 1018.2 1.0
28/01:00am 22.8 22.0 20.0 84 1.8 SE 24 32 13 17 1018.4 1018.4 1.0
28/12:30am 22.9 22.5 20.1 84 1.8 SE 22 35 12 19 1018.7 1018.7 1.0
28/12:00am 22.8 22.0 20.1 85 1.7 SE 24 39 13 21 1019.0 1019.0 1.0
 
Date/Time
EST
Temp
°C
App
Temp
°C
Dew
Point
°C
Rel
Hum
%
Delta-T
°C
Wind Press
QNH
hPa
Press
MSL
hPa
Rain since
9am
mm
Dir  Spd
km/h
Gust
km/h
Spd
kts
Gust
kts
27/11:30pm 22.8 22.3 20.0 84 1.8 SE 22 32 12 17 1019.0 1019.0 1.0
27/11:00pm 22.8 22.4 20.1 85 1.7 ESE 22 32 12 17 1019.1 1019.1 1.0
27/10:30pm 22.7 22.8 20.4 87 1.5 SE 20 32 11 17 1019.2 1019.2 1.0
27/10:00pm 22.7 22.9 20.6 88 1.4 SE 20 35 11 19 1019.1 1019.1 1.0
27/09:30pm 21.8 23.1 20.1 90 1.1 S 13 20 7 11 1019.1 1019.1 0.6
27/09:00pm 21.8 22.2 19.9 89 1.2 S 17 20 9 11 1019.1 1019.1 0.2
27/08:30pm 22.3 23.7 19.5 84 1.8 S 11 15 6 8 1019.0 1019.0 0.2
27/08:00pm 22.5 23.2 18.9 80 2.3 S 13 22 7 12 1018.8 1018.8 0.2
27/07:30pm 22.5 23.6 19.7 84 1.8 SE 13 20 7 11 1018.8 1018.8 0.2
27/07:00pm 22.5 23.6 19.7 84 1.8 S 13 17 7 9 1018.5 1018.5 0.2
27/06:30pm 22.3 22.3 19.8 86 1.6 SE 19 30 10 16 1018.4 1018.4 0.2
27/06:00pm 22.2 23.0 19.9 87 1.5 SE 15 26 8 14 1018.3 1018.3 0.2
27/05:30pm 22.4 22.5 19.9 86 1.6 ESE 19 28 10 15 1018.0 1018.0 0.2
27/05:00pm 22.6 22.5 19.9 85 1.7 SE 20 32 11 17 1018.0 1018.0 0.2
27/04:30pm 22.6 22.7 19.9 85 1.7 SE 19 24 10 13 1017.9 1017.9 0.2
27/04:00pm 22.9 23.3 19.9 83 1.9 SE 17 26 9 14 1017.8 1017.8 0.2
27/03:30pm 22.5 23.7 20.0 86 1.6 S 13 17 7 9 1017.8 1017.8 0.2
27/03:00pm 22.5 23.6 19.7 84 1.8 S 13 19 7 10 1017.6 1017.6 0.2
27/02:30pm 22.5 23.1 19.5 83 1.9 SSE 15 24 8 13 1017.6 1017.6 0.2
27/02:00pm 22.3 22.8 19.3 83 1.9 SSE 15 26 8 14 1017.7 1017.7 0.2
27/01:30pm 22.1 23.8 19.3 84 1.8 SSE 9 17 5 9 1018.0 1018.0 0.2
27/01:00pm 21.7 22.6 19.3 86 1.5 SSE 13 20 7 11 1018.1 1018.1 0.0
27/12:30pm 21.8 20.0 18.8 83 1.9 S 26 32 14 17 1018.4 1018.4 0.0
27/12:00pm 21.8 19.6 18.6 82 2.0 S 28 35 15 19 1018.9 1018.9 0.0
27/11:30am 21.8 19.6 18.6 82 2.0 S 28 35 15 19 1019.2 1019.2 0.0
27/11:00am 22.0 21.1 19.0 83 1.9 S 22 28 12 15 1019.3 1019.3 0.0
27/10:30am 22.0 21.5 18.6 81 2.1 S 19 26 10 14 1019.4 1019.4 0.0
27/10:00am 21.7 19.6 18.9 84 1.8 S 28 33 15 18 1019.4 1019.4 0.0
27/09:30am 21.7 20.0 18.9 84 1.8 S 26 32 14 17 1019.3 1019.3 0.0
27/09:00am 21.5 21.0 18.7 84 1.8 S 19 26 10 14 1019.0 1019.0 0.0
27/08:30am 21.3 19.8 18.5 84 1.8 S 24 32 13 17 1018.8 1018.8 0.0
27/08:00am 21.3 20.7 18.9 86 1.5 S 20 30 11 16 1018.5 1018.5 0.0
27/07:30am 21.3 20.8 18.7 85 1.6 S 19 26 10 14 1018.2 1018.2 0.0
27/07:00am 21.4 21.2 18.6 84 1.8 S 17 22 9 12 1018.0 1018.0 0.0
27/06:30am 21.3 19.9 18.9 86 1.5 S 24 33 13 18 1018.0 1018.0 0.0
27/06:00am 21.1 19.0 18.9 87 1.4 S 28 35 15 19 1018.0 1018.0 0.0
27/05:30am 21.2 18.3 18.9 87 1.4 S 32 37 17 20 1017.9 1017.9 0.0
27/05:00am 21.5 20.3 19.2 87 1.5 S 24 30 13 16 1017.9 1017.9 0.0
27/04:30am 21.6 21.2 19.3 87 1.5 S 20 28 11 15 1017.7 1017.7 0.0
27/04:00am 22.0 21.7 19.2 84 1.8 S 19 30 10 16 1017.6 1017.6 0.0
27/03:30am 22.1 22.9 19.1 83 1.9 S 13 20 7 11 1017.7 1017.7 0.0
27/03:00am 22.1 23.3 19.1 83 1.9 S 11 15 6 8 1017.7 1017.7 0.0
27/02:30am 21.5 21.8 19.6 89 1.2 S 17 20 9 11 1018.0 1018.0 0.0
27/02:00am 21.6 21.9 19.5 88 1.3 S 17 20 9 11 1018.1 1018.1 0.0
27/01:30am 22.3 23.8 18.9 81 2.1 SSE 9 19 5 10 1018.4 1018.4 0.0
27/01:00am 22.4 22.6 19.4 83 1.9 SE 17 24 9 13 1018.8 1018.8 0.0
27/12:30am 22.3 22.4 19.1 82 2.0 SE 17 26 9 14 1018.9 1018.9 0.0
27/12:00am 22.3 22.8 18.3 78 2.5 SE 13 26 7 14 1019.0 1019.0 0.0
 
Date/Time
EST
Temp
°C
App
Temp
°C
Dew
Point
°C
Rel
Hum
%
Delta-T
°C
Wind Press
QNH
hPa
Press
MSL
hPa
Rain since
9am
mm
Dir  Spd
km/h
Gust
km/h
Spd
kts
Gust
kts
26/11:30pm 22.4 21.9 18.6 79 2.4 ESE 19 30 10 16 1019.0 1019.0 0.0
26/11:00pm 22.4 22.3 18.8 80 2.3 ESE 17 28 9 15 1019.1 1019.1 0.0
26/10:30pm 22.5 22.3 18.5 78 2.5 ESE 17 28 9 15 1019.1 1019.1 0.0
26/10:00pm 22.4 22.3 18.8 80 2.3 SE 17 30 9 16 1019.1 1019.1 0.0
26/09:30pm 22.3 22.8 18.3 78 2.5 SE 13 22 7 12 1019.1 1019.1 0.0
26/09:00pm 22.3 22.3 18.9 81 2.1 SE 17 26 9 14 1019.0 1019.0 0.0
26/08:30pm 22.2 21.8 19.0 82 2.0 SE 19 28 10 15 1018.7 1018.7 0.0
26/08:00pm 22.2 22.2 19.0 82 2.0 ESE 17 30 9 16 1018.3 1018.3 0.0
26/07:30pm 22.2 22.2 19.0 82 2.0 SE 17 30 9 16 1018.1 1018.1 0.0
26/07:00pm 22.2 22.4 18.6 80 2.3 SE 15 26 8 14 1017.9 1017.9 0.0
26/06:30pm 22.1 22.1 18.9 82 2.0 SE 17 30 9 16 1017.8 1017.8 0.0
26/06:00pm 22.1 22.2 19.1 83 1.9 ESE 17 30 9 16 1017.5 1017.5 0.0
26/05:30pm 22.1 21.8 19.1 83 1.9 SE 19 30 10 16 1017.5 1017.5 0.0
26/05:00pm 22.3 22.8 19.3 83 1.9 SE 15 24 8 13 1017.7 1017.7 0.0
26/04:30pm 22.2 22.8 19.4 84 1.8 SE 15 24 8 13 1017.4 1017.4 0.0
26/04:00pm 22.3 22.3 18.9 81 2.1 SE 17 26 9 14 1017.3 1017.3 0.0

Other Formats:

Comma delimited format used in spreadsheet applications
http://www.bom.gov.au/fwo/IDQ60801/IDQ60801.94295.axf

JavaScript Object Notation format (JSON) in row-major order
http://www.bom.gov.au/fwo/IDQ60801/IDQ60801.94295.json